createdAt,value
2018-11-26T00:00:01.670Z,6.97
2018-11-26T00:01:01.679Z,7.04
2018-11-26T00:02:01.647Z,7.01
2018-11-26T00:03:01.634Z,7.04
2018-11-26T00:04:01.617Z,7.07
2018-11-26T00:05:01.613Z,6.93
2018-11-26T00:06:01.618Z,7.01
2018-11-26T00:07:01.584Z,7.01
2018-11-26T00:08:01.595Z,6.94
2018-11-26T00:09:01.564Z,7.01
2018-11-26T00:10:01.551Z,6.94
2018-11-26T00:11:01.563Z,7.04
2018-11-26T00:12:01.539Z,6.99
2018-11-26T00:13:01.526Z,7.05
2018-11-26T00:14:01.510Z,6.89
2018-11-26T00:15:01.493Z,6.97
2018-11-26T00:16:01.514Z,7.01
2018-11-26T00:17:01.475Z,7.00
2018-11-26T00:18:01.470Z,7.05
2018-11-26T00:19:01.457Z,7.00
2018-11-26T00:20:01.442Z,6.99
2018-11-26T00:21:01.450Z,7.00
2018-11-26T00:22:01.518Z,6.97
2018-11-26T00:23:01.405Z,6.97
2018-11-26T00:24:01.406Z,7.01
2018-11-26T00:25:01.382Z,6.94
2018-11-26T00:26:01.392Z,6.99
2018-11-26T00:27:01.360Z,6.91
2018-11-26T00:28:01.354Z,6.93
2018-11-26T00:29:01.338Z,6.89
2018-11-26T00:30:01.322Z,6.87
2018-11-26T00:31:01.336Z,6.83
2018-11-26T00:32:01.304Z,6.81
2018-11-26T00:33:01.292Z,6.91
2018-11-26T00:34:01.285Z,6.89
2018-11-26T00:35:01.264Z,6.91
2018-11-26T00:36:01.284Z,6.79
2018-11-26T00:37:01.252Z,6.78
2018-11-26T00:38:01.239Z,6.79
2018-11-26T00:39:01.219Z,6.81
2018-11-26T00:40:01.209Z,6.83
2018-11-26T00:41:01.226Z,6.79
2018-11-26T00:42:01.208Z,6.78
2018-11-26T00:43:01.179Z,6.79
2018-11-26T00:44:01.173Z,6.82
2018-11-26T00:45:01.152Z,6.79
2018-11-26T00:46:01.169Z,6.69
2018-11-26T00:47:01.137Z,6.69
2018-11-26T00:48:01.123Z,6.72
2018-11-26T00:49:01.108Z,6.73
2018-11-26T00:50:01.100Z,6.72
2018-11-26T00:51:01.112Z,6.72
2018-11-26T00:52:01.075Z,6.75
2018-11-26T00:53:01.068Z,6.71
2018-11-26T00:54:01.049Z,6.76
2018-11-26T00:55:01.039Z,6.69
2018-11-26T00:56:01.050Z,6.75
2018-11-26T00:57:01.027Z,6.79
2018-11-26T00:58:01.010Z,6.78
2018-11-26T00:59:00.994Z,6.69
2018-11-26T01:00:00.990Z,6.69
2018-11-26T01:01:00.990Z,6.78
2018-11-26T01:02:00.966Z,6.69
2018-11-26T01:03:00.947Z,6.69
2018-11-26T01:04:00.945Z,6.69
2018-11-26T01:05:00.926Z,6.71
2018-11-26T01:06:00.957Z,6.73
2018-11-26T01:07:00.902Z,6.69
2018-11-26T01:08:00.896Z,6.71
2018-11-26T01:09:00.883Z,6.76
2018-11-26T01:10:00.874Z,6.72
2018-11-26T01:11:00.887Z,6.78
2018-11-26T01:12:00.845Z,6.65
2018-11-26T01:13:00.844Z,6.72
2018-11-26T01:14:00.828Z,6.68
2018-11-26T01:15:00.814Z,6.69
2018-11-26T01:16:00.829Z,6.64
2018-11-26T01:17:00.794Z,6.68
2018-11-26T01:18:00.782Z,6.72
2018-11-26T01:19:00.782Z,6.65
2018-11-26T01:20:00.761Z,6.72
2018-11-26T01:21:00.774Z,6.73
2018-11-26T01:22:00.741Z,6.72
2018-11-26T01:23:00.727Z,6.78
2018-11-26T01:24:00.721Z,6.73
2018-11-26T01:25:00.709Z,6.76
2018-11-26T01:26:00.697Z,6.72
2018-11-26T01:27:00.705Z,6.72
2018-11-26T01:28:00.666Z,6.69
2018-11-26T01:29:00.671Z,6.73
2018-11-26T01:30:00.647Z,6.71
2018-11-26T01:31:00.662Z,6.68
2018-11-26T01:32:00.626Z,6.72
2018-11-26T01:33:00.646Z,6.71
2018-11-26T01:34:00.601Z,6.64
2018-11-26T01:35:00.600Z,6.68
2018-11-26T01:36:00.581Z,6.65
2018-11-26T01:37:00.591Z,6.73
2018-11-26T01:38:00.559Z,6.71
2018-11-26T01:39:00.548Z,6.68
2018-11-26T01:40:00.531Z,6.69
2018-11-26T01:41:00.522Z,6.71
2018-11-26T01:42:00.532Z,6.71
2018-11-26T01:43:00.501Z,6.69
2018-11-26T01:44:00.495Z,6.71
2018-11-26T01:45:00.482Z,6.75
2018-11-26T01:46:00.483Z,6.75
2018-11-26T01:47:00.483Z,6.73
2018-11-26T01:48:00.442Z,6.71
2018-11-26T01:49:00.439Z,6.69
2018-11-26T01:50:00.427Z,6.78
2018-11-26T01:51:00.405Z,6.69
2018-11-26T01:52:00.420Z,6.72
2018-11-26T01:53:00.387Z,6.72
2018-11-26T01:54:00.372Z,6.71
2018-11-26T01:55:00.380Z,6.65
2018-11-26T01:56:00.358Z,6.73
2018-11-26T01:57:00.364Z,6.68
2018-11-26T01:58:00.329Z,6.73
2018-11-26T01:59:00.317Z,6.69
2018-11-26T02:00:00.359Z,6.73
2018-11-26T02:01:00.296Z,6.64
2018-11-26T02:02:00.310Z,6.65
2018-11-26T02:03:00.281Z,6.65
2018-11-26T02:04:00.257Z,6.72
2018-11-26T02:05:00.261Z,6.68
2018-11-26T02:06:00.234Z,6.65
2018-11-26T02:07:00.250Z,6.71
2018-11-26T02:08:00.210Z,6.68
2018-11-26T02:09:00.209Z,6.69
2018-11-26T02:10:00.191Z,6.73
2018-11-26T02:11:00.189Z,6.72
2018-11-26T02:12:00.200Z,6.78
2018-11-26T02:13:00.157Z,6.71
2018-11-26T02:14:00.152Z,6.72
2018-11-26T02:15:00.141Z,6.78
2018-11-26T02:16:00.126Z,6.82
2018-11-26T02:17:00.141Z,6.78
2018-11-26T02:18:00.101Z,6.72
2018-11-26T02:19:00.109Z,6.75
2018-11-26T02:20:00.104Z,6.72
2018-11-26T02:21:00.068Z,6.71
2018-11-26T02:22:00.082Z,6.68
2018-11-26T02:23:00.076Z,6.75
2018-11-26T02:24:00.036Z,6.58
2018-11-26T02:25:00.036Z,6.65
2018-11-26T02:26:00.004Z,6.71
2018-11-26T02:27:00.029Z,6.65
2018-11-26T02:27:59.987Z,6.68
2018-11-26T02:28:59.975Z,6.65
2018-11-26T02:29:59.967Z,6.68
2018-11-26T02:30:59.962Z,6.65
2018-11-26T02:31:59.964Z,6.69
2018-11-26T02:32:59.932Z,6.61
2018-11-26T02:33:59.920Z,6.63
2018-11-26T02:34:59.923Z,6.57
2018-11-26T02:35:59.892Z,6.61
2018-11-26T02:36:59.909Z,6.69
2018-11-26T02:37:59.878Z,6.55
2018-11-26T02:38:59.860Z,6.63
2018-11-26T02:39:59.858Z,6.64
2018-11-26T02:40:59.840Z,6.60
2018-11-26T02:41:59.854Z,6.65
2018-11-26T02:42:59.821Z,6.64
2018-11-26T02:43:59.800Z,6.57
2018-11-26T02:44:59.797Z,6.57
2018-11-26T02:45:59.791Z,6.51
2018-11-26T02:46:59.792Z,6.50
2018-11-26T02:47:59.762Z,6.51
2018-11-26T02:48:59.745Z,6.50
2018-11-26T02:49:59.740Z,6.48
2018-11-26T02:50:59.732Z,6.51
2018-11-26T02:51:59.744Z,6.45
2018-11-26T02:52:59.711Z,6.51
2018-11-26T02:53:59.692Z,6.48
2018-11-26T02:54:59.679Z,6.53
2018-11-26T02:55:59.674Z,6.54
2018-11-26T02:56:59.682Z,6.54
2018-11-26T02:57:59.647Z,6.51
2018-11-26T02:58:59.635Z,6.46
2018-11-26T02:59:59.621Z,6.46
2018-11-26T03:00:59.610Z,6.50
2018-11-26T03:01:59.636Z,6.51
2018-11-26T03:02:59.586Z,6.48
2018-11-26T03:03:59.580Z,6.54
2018-11-26T03:04:59.564Z,6.48
2018-11-26T03:05:59.553Z,6.57
2018-11-26T03:06:59.726Z,6.55
2018-11-26T03:07:59.535Z,6.54
2018-11-26T03:08:59.528Z,6.53
2018-11-26T03:09:59.511Z,6.48
2018-11-26T03:10:59.496Z,6.45
2018-11-26T03:11:59.509Z,6.51
2018-11-26T03:12:59.472Z,6.57
2018-11-26T03:13:59.464Z,6.61
2018-11-26T03:14:59.455Z,6.53
2018-11-26T03:15:59.451Z,6.57
2018-11-26T03:16:59.454Z,6.55
2018-11-26T03:17:59.420Z,6.48
2018-11-26T03:18:59.410Z,6.60
2018-11-26T03:19:59.407Z,6.58
2018-11-26T03:20:59.383Z,6.64
2018-11-26T03:21:59.376Z,6.57
2018-11-26T03:22:59.389Z,6.53
2018-11-26T03:23:59.346Z,6.55
2018-11-26T03:24:59.339Z,6.53
2018-11-26T03:25:59.323Z,6.54
2018-11-26T03:26:59.317Z,6.54
2018-11-26T03:27:59.331Z,6.50
2018-11-26T03:28:59.292Z,6.55
2018-11-26T03:29:59.285Z,6.55
2018-11-26T03:30:59.278Z,6.55
2018-11-26T03:31:59.265Z,6.46
2018-11-26T03:32:59.271Z,6.46
2018-11-26T03:33:59.240Z,6.42
2018-11-26T03:34:59.221Z,6.50
2018-11-26T03:35:59.217Z,6.48
2018-11-26T03:36:59.199Z,6.53
2018-11-26T03:37:59.230Z,6.51
2018-11-26T03:38:59.176Z,6.43
2018-11-26T03:39:59.166Z,6.51
2018-11-26T03:40:59.156Z,6.45
2018-11-26T03:41:59.160Z,6.48
2018-11-26T03:42:59.161Z,6.51
2018-11-26T03:43:59.124Z,6.43
2018-11-26T03:44:59.107Z,6.48
2018-11-26T03:45:59.094Z,6.50
2018-11-26T03:46:59.092Z,6.46
2018-11-26T03:47:59.097Z,6.48
2018-11-26T03:48:59.069Z,6.54
2018-11-26T03:49:59.074Z,6.48
2018-11-26T03:50:59.041Z,6.51
2018-11-26T03:51:59.028Z,6.45
2018-11-26T03:52:59.043Z,6.48
2018-11-26T03:53:59.003Z,6.45
2018-11-26T03:54:58.999Z,6.45
2018-11-26T03:55:58.982Z,6.51
2018-11-26T03:56:58.970Z,6.50
2018-11-26T03:57:58.990Z,6.50
2018-11-26T03:58:58.945Z,6.45
2018-11-26T03:59:58.945Z,6.39
2018-11-26T04:00:58.929Z,6.45
2018-11-26T04:01:58.927Z,6.50
2018-11-26T04:02:58.939Z,6.48
2018-11-26T04:03:58.889Z,6.38
2018-11-26T04:04:58.883Z,6.35
2018-11-26T04:05:58.887Z,6.39
2018-11-26T04:06:58.859Z,6.35
2018-11-26T04:07:58.877Z,6.33
2018-11-26T04:08:58.835Z,6.32
2018-11-26T04:09:58.829Z,6.30
2018-11-26T04:10:58.811Z,6.33
2018-11-26T04:11:58.799Z,6.30
2018-11-26T04:12:58.836Z,6.25
2018-11-26T04:13:58.779Z,6.28
2018-11-26T04:14:58.769Z,6.30
2018-11-26T04:15:58.757Z,6.19
2018-11-26T04:16:58.741Z,6.24
2018-11-26T04:17:58.771Z,6.21
2018-11-26T04:18:58.722Z,6.24
2018-11-26T04:19:58.716Z,6.28
2018-11-26T04:20:58.749Z,6.30
2018-11-26T04:21:58.696Z,6.25
2018-11-26T04:22:58.714Z,6.25
2018-11-26T04:23:58.682Z,6.27
2018-11-26T04:24:58.656Z,6.27
2018-11-26T04:25:58.642Z,6.30
2018-11-26T04:26:58.638Z,6.33
2018-11-26T04:27:58.641Z,6.32
2018-11-26T04:28:58.613Z,6.39
2018-11-26T04:29:58.592Z,6.35
2018-11-26T04:30:58.586Z,6.38
2018-11-26T04:31:58.575Z,6.33
2018-11-26T04:32:58.588Z,6.38
2018-11-26T04:33:58.551Z,6.36
2018-11-26T04:34:58.539Z,6.36
2018-11-26T04:35:58.531Z,6.33
2018-11-26T04:36:58.884Z,6.33
2018-11-26T04:37:58.529Z,6.36
2018-11-26T04:38:58.505Z,6.39
2018-11-26T04:39:58.486Z,6.38
2018-11-26T04:40:58.472Z,6.30
2018-11-26T04:41:58.468Z,6.35
2018-11-26T04:42:58.471Z,6.27
2018-11-26T04:43:58.433Z,6.27
2018-11-26T04:44:58.427Z,6.30
2018-11-26T04:45:58.417Z,6.21
2018-11-26T04:46:58.414Z,6.30
2018-11-26T04:47:58.428Z,6.32
2018-11-26T04:48:58.378Z,6.16
2018-11-26T04:49:58.370Z,6.24
2018-11-26T04:50:58.357Z,6.27
2018-11-26T04:51:58.346Z,6.28
2018-11-26T04:52:58.354Z,6.21
2018-11-26T04:53:58.323Z,6.28
2018-11-26T04:54:58.311Z,6.19
2018-11-26T04:55:58.314Z,6.24
2018-11-26T04:56:58.288Z,6.24
2018-11-26T04:57:58.302Z,6.24
2018-11-26T04:58:58.269Z,6.17
2018-11-26T04:59:58.254Z,6.24
2018-11-26T05:00:58.260Z,6.24
2018-11-26T05:01:58.229Z,6.27
2018-11-26T05:02:58.253Z,6.16
2018-11-26T05:03:58.218Z,6.25
2018-11-26T05:04:58.201Z,6.21
2018-11-26T05:05:58.182Z,6.24
2018-11-26T05:06:58.171Z,6.24
2018-11-26T05:07:58.217Z,6.17
2018-11-26T05:08:58.151Z,6.27
2018-11-26T05:09:58.140Z,6.21
2018-11-26T05:10:58.131Z,6.24
2018-11-26T05:11:58.121Z,6.11
2018-11-26T05:12:58.135Z,6.14
2018-11-26T05:13:58.096Z,6.21
2018-11-26T05:14:58.088Z,6.19
2018-11-26T05:15:58.121Z,6.11
2018-11-26T05:16:58.057Z,6.11
2018-11-26T05:17:58.050Z,6.10
2018-11-26T05:18:58.076Z,6.13
2018-11-26T05:19:58.028Z,6.14
2018-11-26T05:20:58.016Z,6.10
2018-11-26T05:21:58.007Z,6.16
2018-11-26T05:22:57.997Z,6.11
2018-11-26T05:23:58.014Z,6.16
2018-11-26T05:24:57.968Z,5.99
2018-11-26T05:25:57.971Z,6.11
2018-11-26T05:26:57.952Z,6.06
2018-11-26T05:27:57.938Z,6.06
2018-11-26T05:28:57.948Z,6.03
2018-11-26T05:29:57.920Z,6.06
2018-11-26T05:30:57.905Z,6.01
2018-11-26T05:31:57.891Z,5.99
2018-11-26T05:32:57.882Z,5.98
2018-11-26T05:33:57.898Z,6.06
2018-11-26T05:34:57.861Z,5.95
2018-11-26T05:35:57.843Z,5.99
2018-11-26T05:36:57.838Z,5.98
2018-11-26T05:37:57.822Z,5.95
2018-11-26T05:38:57.844Z,6.02
2018-11-26T05:39:57.797Z,5.99
2018-11-26T05:40:57.790Z,6.08
2018-11-26T05:41:57.777Z,5.96
2018-11-26T05:42:57.773Z,6.01
2018-11-26T05:43:57.781Z,5.87
2018-11-26T05:44:57.743Z,5.99
2018-11-26T05:45:57.733Z,5.95
2018-11-26T05:46:57.725Z,5.85
2018-11-26T05:47:57.709Z,5.93
2018-11-26T05:48:57.739Z,5.99
2018-11-26T05:49:57.702Z,5.99
2018-11-26T05:50:57.679Z,5.88
2018-11-26T05:51:57.662Z,5.92
2018-11-26T05:52:57.654Z,5.90
2018-11-26T05:53:57.675Z,5.95
2018-11-26T05:54:57.628Z,5.90
2018-11-26T05:55:57.621Z,5.93
2018-11-26T05:56:57.617Z,5.93
2018-11-26T05:57:57.597Z,5.96
2018-11-26T05:58:57.617Z,5.90
2018-11-26T05:59:57.579Z,5.88
2018-11-26T06:00:57.569Z,5.87
2018-11-26T06:01:57.554Z,5.84
2018-11-26T06:02:57.551Z,5.85
2018-11-26T06:03:57.564Z,5.84
2018-11-26T06:04:57.526Z,5.83
2018-11-26T06:05:57.510Z,5.75
2018-11-26T06:06:57.512Z,5.83
2018-11-26T06:07:57.489Z,5.78
2018-11-26T06:08:57.501Z,5.80
2018-11-26T06:09:57.472Z,5.78
2018-11-26T06:10:57.451Z,5.80
2018-11-26T06:11:57.440Z,5.78
2018-11-26T06:12:57.441Z,5.80
2018-11-26T06:13:57.450Z,5.78
2018-11-26T06:14:57.410Z,5.73
2018-11-26T06:15:57.401Z,5.73
2018-11-26T06:16:57.387Z,5.77
2018-11-26T06:17:57.382Z,5.74
2018-11-26T06:18:57.393Z,5.69
2018-11-26T06:19:57.361Z,5.78
2018-11-26T06:20:57.350Z,5.73
2018-11-26T06:21:57.336Z,5.74
2018-11-26T06:22:57.327Z,5.83
2018-11-26T06:23:57.341Z,5.73
2018-11-26T06:24:57.306Z,5.74
2018-11-26T06:25:57.288Z,5.67
2018-11-26T06:26:57.280Z,5.80
2018-11-26T06:27:57.277Z,5.77
2018-11-26T06:28:57.282Z,5.75
2018-11-26T06:29:57.252Z,5.69
2018-11-26T06:30:57.258Z,5.73
2018-11-26T06:31:57.223Z,5.77
2018-11-26T06:32:57.212Z,5.74
2018-11-26T06:33:57.231Z,5.73
2018-11-26T06:34:57.196Z,5.74
2018-11-26T06:35:57.196Z,5.75
2018-11-26T06:36:57.177Z,5.75
2018-11-26T06:37:57.157Z,5.80
2018-11-26T06:38:57.175Z,5.77
2018-11-26T06:39:57.147Z,5.87
2018-11-26T06:40:57.123Z,5.87
2018-11-26T06:41:57.122Z,5.85
2018-11-26T06:42:57.105Z,5.85
2018-11-26T06:43:57.130Z,5.85
2018-11-26T06:44:57.079Z,5.84
2018-11-26T06:45:57.071Z,5.80
2018-11-26T06:46:57.060Z,5.83
2018-11-26T06:47:57.060Z,5.75
2018-11-26T06:48:57.077Z,5.77
2018-11-26T06:49:57.027Z,5.75
2018-11-26T06:50:57.033Z,5.73
2018-11-26T06:51:57.005Z,5.77
2018-11-26T06:52:57.007Z,5.74
2018-11-26T06:53:57.052Z,5.70
2018-11-26T06:54:56.980Z,5.69
2018-11-26T06:55:56.968Z,5.63
2018-11-26T06:56:56.954Z,5.66
2018-11-26T06:57:56.949Z,5.66
2018-11-26T06:58:56.954Z,5.65
2018-11-26T06:59:56.929Z,5.65
2018-11-26T07:00:56.913Z,5.65
2018-11-26T07:01:56.901Z,5.70
2018-11-26T07:02:56.896Z,5.73
2018-11-26T07:03:56.908Z,5.77
2018-11-26T07:04:56.865Z,5.81
2018-11-26T07:05:56.862Z,5.87
2018-11-26T07:06:56.843Z,5.87
2018-11-26T07:07:56.835Z,5.84
2018-11-26T07:08:56.848Z,5.83
2018-11-26T07:09:56.823Z,5.83
2018-11-26T07:10:56.810Z,5.88
2018-11-26T07:11:56.788Z,5.87
2018-11-26T07:12:56.795Z,5.88
2018-11-26T07:13:56.770Z,5.92
2018-11-26T07:14:56.785Z,5.87
2018-11-26T07:15:56.749Z,5.92
2018-11-26T07:16:56.736Z,5.95
2018-11-26T07:17:56.724Z,5.98
2018-11-26T07:18:56.723Z,5.87
2018-11-26T07:19:56.744Z,5.92
2018-11-26T07:20:56.699Z,5.90
2018-11-26T07:21:56.687Z,5.90
2018-11-26T07:22:56.677Z,5.83
2018-11-26T07:23:56.663Z,5.85
2018-11-26T07:24:56.675Z,5.81
2018-11-26T07:25:56.642Z,5.85
2018-11-26T07:26:56.636Z,5.85
2018-11-26T07:27:56.620Z,5.84
2018-11-26T07:28:56.608Z,5.80
2018-11-26T07:29:56.630Z,5.83
2018-11-26T07:30:56.589Z,5.87
2018-11-26T07:31:56.579Z,5.69
2018-11-26T07:32:56.563Z,5.73
2018-11-26T07:33:56.595Z,5.80
2018-11-26T07:34:56.563Z,5.73
2018-11-26T07:35:56.533Z,5.81
2018-11-26T07:36:56.521Z,5.80
2018-11-26T07:37:56.519Z,5.84
2018-11-26T07:38:56.495Z,5.88
2018-11-26T07:39:56.510Z,5.78
2018-11-26T07:40:56.486Z,5.80
2018-11-26T07:41:56.465Z,5.81
2018-11-26T07:42:56.448Z,5.90
2018-11-26T07:43:56.444Z,5.84
2018-11-26T07:44:56.453Z,5.81
2018-11-26T07:45:56.418Z,5.84
2018-11-26T07:46:56.412Z,5.95
2018-11-26T07:47:56.394Z,5.93
2018-11-26T07:48:56.382Z,5.95
2018-11-26T07:49:56.400Z,5.87
2018-11-26T07:50:56.365Z,5.92
2018-11-26T07:51:56.360Z,5.99
2018-11-26T07:52:56.340Z,5.92
2018-11-26T07:53:56.330Z,6.05
2018-11-26T07:54:56.343Z,6.02
2018-11-26T07:55:56.306Z,6.03
2018-11-26T07:56:56.296Z,6.05
2018-11-26T07:57:56.282Z,6.03
2018-11-26T07:58:56.277Z,6.06
2018-11-26T07:59:56.291Z,6.08
2018-11-26T08:00:56.250Z,6.11
2018-11-26T08:01:56.247Z,6.13
2018-11-26T08:02:56.225Z,6.11
2018-11-26T08:03:56.219Z,6.25
2018-11-26T08:04:56.237Z,6.25
2018-11-26T08:05:56.197Z,6.28
2018-11-26T08:06:56.186Z,6.33
2018-11-26T08:07:56.170Z,6.39
2018-11-26T08:08:56.162Z,6.27
2018-11-26T08:09:56.171Z,6.39
2018-11-26T08:10:56.141Z,6.42
2018-11-26T08:11:56.128Z,6.33
2018-11-26T08:12:56.110Z,6.36
2018-11-26T08:13:56.100Z,6.40
2018-11-26T08:14:56.115Z,6.39
2018-11-26T08:15:56.092Z,6.40
2018-11-26T08:16:56.066Z,6.40
2018-11-26T08:17:56.061Z,6.46
2018-11-26T08:18:56.045Z,6.50
2018-11-26T08:19:56.058Z,6.53
2018-11-26T08:20:56.026Z,6.50
2018-11-26T08:21:56.014Z,6.46
2018-11-26T08:22:55.998Z,6.46
2018-11-26T08:23:55.993Z,6.48
2018-11-26T08:24:56.006Z,6.50
2018-11-26T08:25:55.968Z,6.48
2018-11-26T08:26:55.960Z,6.51
2018-11-26T08:27:55.950Z,6.61
2018-11-26T08:28:55.929Z,6.57
2018-11-26T08:29:55.941Z,6.61
2018-11-26T08:30:55.915Z,6.61
2018-11-26T08:31:55.894Z,6.55
2018-11-26T08:32:55.893Z,6.68
2018-11-26T08:33:55.886Z,6.58
2018-11-26T08:34:55.888Z,6.63
2018-11-26T08:35:55.851Z,6.69
2018-11-26T08:36:55.841Z,6.73
2018-11-26T08:37:55.847Z,6.68
2018-11-26T08:38:55.817Z,6.72
2018-11-26T08:39:55.827Z,6.72
2018-11-26T08:40:55.792Z,6.82
2018-11-26T08:41:55.784Z,6.79
2018-11-26T08:42:55.770Z,6.79
2018-11-26T08:43:55.767Z,6.87
2018-11-26T08:44:55.783Z,6.86
2018-11-26T08:45:55.746Z,6.96
2018-11-26T08:46:55.725Z,6.93
2018-11-26T08:47:55.719Z,6.90
2018-11-26T08:48:55.713Z,6.96
2018-11-26T08:49:55.714Z,6.91
2018-11-26T08:50:55.678Z,6.90
2018-11-26T08:51:55.670Z,6.93
2018-11-26T08:52:55.658Z,6.93
2018-11-26T08:53:55.644Z,6.94
2018-11-26T08:54:55.635Z,6.97
2018-11-26T08:55:55.649Z,6.97
2018-11-26T08:56:55.617Z,6.94
2018-11-26T08:57:55.606Z,6.97
2018-11-26T08:58:55.592Z,6.99
2018-11-26T08:59:55.583Z,6.97
2018-11-26T09:00:55.592Z,6.97
2018-11-26T09:01:55.558Z,6.97
2018-11-26T09:02:55.547Z,6.97
2018-11-26T09:03:55.543Z,7.01
2018-11-26T09:04:55.554Z,6.99
2018-11-26T09:05:55.514Z,7.01
2018-11-26T09:06:55.501Z,6.99
2018-11-26T09:07:55.537Z,7.07
2018-11-26T09:08:55.479Z,6.97
2018-11-26T09:09:55.474Z,6.93
2018-11-26T09:10:55.482Z,6.99
2018-11-26T09:11:55.453Z,7.09
2018-11-26T09:12:55.434Z,7.01
2018-11-26T09:13:55.423Z,7.05
2018-11-26T09:14:55.411Z,7.01
2018-11-26T09:15:55.424Z,7.07
2018-11-26T09:16:55.393Z,7.07
2018-11-26T09:17:55.383Z,7.01
2018-11-26T09:18:55.378Z,7.07
2018-11-26T09:19:55.363Z,7.07
2018-11-26T09:20:55.369Z,7.09
2018-11-26T09:21:55.340Z,7.07
2018-11-26T09:22:55.323Z,7.08
2018-11-26T09:23:55.314Z,7.07
2018-11-26T09:24:55.300Z,7.16
2018-11-26T09:25:55.322Z,7.18
2018-11-26T09:26:55.304Z,7.09
2018-11-26T09:27:55.272Z,7.18
2018-11-26T09:28:55.257Z,7.05
2018-11-26T09:29:55.248Z,7.12
2018-11-26T09:30:55.865Z,7.12
2018-11-26T09:31:55.224Z,7.14
2018-11-26T09:32:55.222Z,7.16
2018-11-26T09:33:55.203Z,7.19
2018-11-26T09:34:55.196Z,7.23
2018-11-26T09:35:55.207Z,7.27
2018-11-26T09:36:55.169Z,7.19
2018-11-26T09:37:55.165Z,7.19
2018-11-26T09:38:55.149Z,7.19
2018-11-26T09:39:55.140Z,7.23
2018-11-26T09:40:55.162Z,7.19
2018-11-26T09:41:55.112Z,7.21
2018-11-26T09:42:55.112Z,7.30
2018-11-26T09:43:55.091Z,7.26
2018-11-26T09:44:55.081Z,7.30
2018-11-26T09:45:55.100Z,7.30
2018-11-26T09:46:55.073Z,7.24
2018-11-26T09:47:55.058Z,7.15
2018-11-26T09:48:55.041Z,7.19
2018-11-26T09:49:55.037Z,7.24
2018-11-26T09:50:55.051Z,7.18
2018-11-26T09:51:55.006Z,7.16
2018-11-26T09:52:55.885Z,7.24
2018-11-26T09:53:54.986Z,7.26
2018-11-26T09:54:54.969Z,7.16
2018-11-26T09:55:54.980Z,7.23
2018-11-26T09:56:54.949Z,7.18
2018-11-26T09:57:54.978Z,7.23
2018-11-26T09:58:54.924Z,7.19
2018-11-26T09:59:54.917Z,7.26
2018-11-26T10:00:54.946Z,7.26
2018-11-26T10:01:54.891Z,7.24
2018-11-26T10:02:54.884Z,7.30
2018-11-26T10:03:54.870Z,7.26
2018-11-26T10:04:54.867Z,7.36
2018-11-26T10:05:54.870Z,7.23
2018-11-26T10:06:54.836Z,7.36
2018-11-26T10:07:54.853Z,7.39
2018-11-26T10:08:54.823Z,7.29
2018-11-26T10:09:54.811Z,7.37
2018-11-26T10:10:54.816Z,7.32
2018-11-26T10:11:54.780Z,7.29
2018-11-26T10:12:54.772Z,7.32
2018-11-26T10:13:54.757Z,7.36
2018-11-26T10:14:54.747Z,7.42
2018-11-26T10:15:54.760Z,7.41
2018-11-26T10:16:54.734Z,7.39
2018-11-26T10:17:54.722Z,7.47
2018-11-26T10:18:54.701Z,7.39
2018-11-26T10:19:54.692Z,7.44
2018-11-26T10:20:54.718Z,7.42
2018-11-26T10:21:54.674Z,7.44
2018-11-26T10:22:54.666Z,7.44
2018-11-26T10:23:54.654Z,7.47
2018-11-26T10:24:54.638Z,7.57
2018-11-26T10:25:54.650Z,7.58
2018-11-26T10:26:54.622Z,7.48
2018-11-26T10:27:54.603Z,7.51
2018-11-26T10:28:54.593Z,7.57
2018-11-26T10:29:54.583Z,7.51
2018-11-26T10:30:54.602Z,7.50
2018-11-26T10:31:54.581Z,7.50
2018-11-26T10:32:54.551Z,7.52
2018-11-26T10:33:54.538Z,7.52
2018-11-26T10:34:54.532Z,7.55
2018-11-26T10:35:54.519Z,7.52
2018-11-26T10:36:54.530Z,7.60
2018-11-26T10:37:54.492Z,7.48
2018-11-26T10:38:54.482Z,7.55
2018-11-26T10:39:54.482Z,7.51
2018-11-26T10:40:54.514Z,7.52
2018-11-26T10:41:54.474Z,7.60
2018-11-26T10:42:54.451Z,7.55
2018-11-26T10:43:54.427Z,7.54
2018-11-26T10:44:54.427Z,7.51
2018-11-26T10:45:54.408Z,7.51
2018-11-26T10:46:54.420Z,7.52
2018-11-26T10:47:54.383Z,7.54
2018-11-26T10:48:54.389Z,7.52
2018-11-26T10:49:54.361Z,7.50
2018-11-26T10:50:54.373Z,7.52
2018-11-26T10:51:54.349Z,7.57
2018-11-26T10:52:54.333Z,7.62
2018-11-26T10:53:54.320Z,7.66
2018-11-26T10:54:54.306Z,7.62
2018-11-26T10:55:54.295Z,7.58
2018-11-26T10:56:54.305Z,7.62
2018-11-26T10:57:54.280Z,7.62
2018-11-26T10:58:54.270Z,7.62
2018-11-26T10:59:54.248Z,7.62
2018-11-26T11:00:54.238Z,7.63
2018-11-26T11:01:54.255Z,7.62
2018-11-26T11:02:54.219Z,7.66
2018-11-26T11:03:54.213Z,7.66
2018-11-26T11:04:54.198Z,7.70
2018-11-26T11:05:54.181Z,7.66
2018-11-26T11:06:55.822Z,7.66
2018-11-26T11:07:54.162Z,7.60
2018-11-26T11:08:54.193Z,7.67
2018-11-26T11:09:54.143Z,7.62
2018-11-26T11:10:54.126Z,7.66
2018-11-26T11:11:54.143Z,7.62
2018-11-26T11:12:54.110Z,7.60
2018-11-26T11:13:54.092Z,7.62
2018-11-26T11:14:54.083Z,7.70
2018-11-26T11:15:54.146Z,7.58
2018-11-26T11:16:54.098Z,7.60
2018-11-26T11:17:54.048Z,7.62
2018-11-26T11:18:54.037Z,7.58
2018-11-26T11:19:54.043Z,7.62
2018-11-26T11:20:54.043Z,7.66
2018-11-26T11:21:54.030Z,7.63
2018-11-26T11:22:54.014Z,7.66
2018-11-26T11:23:53.997Z,7.71
2018-11-26T11:24:53.974Z,7.60
2018-11-26T11:25:53.960Z,7.70
2018-11-26T11:26:53.978Z,7.63
2018-11-26T11:27:53.955Z,7.71
2018-11-26T11:28:53.928Z,7.58
2018-11-26T11:29:53.917Z,7.67
2018-11-26T11:30:53.921Z,7.63
2018-11-26T11:31:53.920Z,7.58
2018-11-26T11:32:53.890Z,7.69
2018-11-26T11:33:53.871Z,7.70
2018-11-26T11:34:53.858Z,7.63
2018-11-26T11:35:53.848Z,7.63
2018-11-26T11:36:53.879Z,7.67
2018-11-26T11:37:53.839Z,7.70
2018-11-26T11:38:53.816Z,7.70
2018-11-26T11:39:53.813Z,7.60
2018-11-26T11:40:53.800Z,7.67
2018-11-26T11:41:53.808Z,7.71
2018-11-26T11:42:53.779Z,7.69
2018-11-26T11:43:53.761Z,7.58
2018-11-26T11:44:53.748Z,7.66
2018-11-26T11:45:53.736Z,7.67
2018-11-26T11:46:53.759Z,7.60
2018-11-26T11:47:53.715Z,7.62
2018-11-26T11:48:53.703Z,7.62
2018-11-26T11:49:53.694Z,7.66
2018-11-26T11:50:53.690Z,7.69
2018-11-26T11:51:53.695Z,7.66
2018-11-26T11:52:53.658Z,7.60
2018-11-26T11:53:53.650Z,7.66
2018-11-26T11:54:53.635Z,7.76
2018-11-26T11:55:53.627Z,7.77
2018-11-26T11:56:53.693Z,7.69
2018-11-26T11:57:53.617Z,7.71
2018-11-26T11:58:53.592Z,7.77
2018-11-26T11:59:53.580Z,7.67
2018-11-26T12:00:53.575Z,7.62
2018-11-26T12:01:53.613Z,7.74
2018-11-26T12:02:53.591Z,7.79
2018-11-26T12:03:53.574Z,7.69
2018-11-26T12:04:53.566Z,7.82
2018-11-26T12:05:53.522Z,7.67
2018-11-26T12:06:53.585Z,7.70
2018-11-26T12:07:53.525Z,7.79
2018-11-26T12:08:53.522Z,7.71
2018-11-26T12:09:53.508Z,7.70
2018-11-26T12:10:53.486Z,7.67
2018-11-26T12:11:53.485Z,7.82
2018-11-26T12:12:53.436Z,7.71
2018-11-26T12:13:53.428Z,7.86
2018-11-26T12:14:53.415Z,7.70
2018-11-26T12:15:53.432Z,7.76
2018-11-26T12:16:54.260Z,7.81
2018-11-26T12:17:53.383Z,7.79
2018-11-26T12:18:53.381Z,7.81
2018-11-26T12:19:53.358Z,7.73
2018-11-26T12:20:53.347Z,7.84
2018-11-26T12:21:53.371Z,7.79
2018-11-26T12:22:53.333Z,7.81
2018-11-26T12:23:53.346Z,7.82
2018-11-26T12:24:53.306Z,7.86
2018-11-26T12:25:53.302Z,7.84
2018-11-26T12:26:53.282Z,7.84
2018-11-26T12:27:53.292Z,7.92
2018-11-26T12:28:53.257Z,7.88
2018-11-26T12:29:53.248Z,7.91
2018-11-26T12:30:53.237Z,7.88
2018-11-26T12:31:53.226Z,7.86
2018-11-26T12:32:53.352Z,7.95
2018-11-26T12:33:53.209Z,7.82
2018-11-26T12:34:53.192Z,7.89
2018-11-26T12:35:53.189Z,7.85
2018-11-26T12:36:57.761Z,7.85
2018-11-26T12:37:53.181Z,7.79
2018-11-26T12:38:53.160Z,7.84
2018-11-26T12:39:53.135Z,7.85
2018-11-26T12:40:53.124Z,7.86
2018-11-26T12:41:53.115Z,7.82
2018-11-26T12:42:53.126Z,7.85
2018-11-26T12:43:53.240Z,7.88
2018-11-26T12:44:53.121Z,7.94
2018-11-26T12:45:53.143Z,7.84
2018-11-26T12:46:53.075Z,7.89
2018-11-26T12:47:53.081Z,7.81
2018-11-26T12:48:53.037Z,7.89
2018-11-26T12:49:53.027Z,7.86
2018-11-26T12:50:53.036Z,7.94
2018-11-26T12:51:53.019Z,7.95
2018-11-26T12:52:53.018Z,7.95
2018-11-26T12:53:52.997Z,7.89
2018-11-26T12:54:52.973Z,7.89
2018-11-26T12:55:52.961Z,7.96
2018-11-26T12:56:52.962Z,7.91
2018-11-26T12:57:52.961Z,7.92
2018-11-26T12:58:52.930Z,7.88
2018-11-26T12:59:52.921Z,7.88
2018-11-26T13:00:52.905Z,7.89
2018-11-26T13:01:52.894Z,7.89
2018-11-26T13:02:52.909Z,7.89
2018-11-26T13:03:52.867Z,7.92
2018-11-26T13:04:52.871Z,7.91
2018-11-26T13:05:52.846Z,7.91
2018-11-26T13:06:52.837Z,7.94
2018-11-26T13:07:52.847Z,7.94
2018-11-26T13:08:52.816Z,7.91
2018-11-26T13:09:52.803Z,7.89
2018-11-26T13:10:52.790Z,7.94
2018-11-26T13:11:52.782Z,7.92
2018-11-26T13:12:52.793Z,8.00
2018-11-26T13:13:52.758Z,8.00
2018-11-26T13:14:52.758Z,7.95
2018-11-26T13:15:52.743Z,7.99
2018-11-26T13:16:52.732Z,8.06
2018-11-26T13:17:52.742Z,7.94